Time;durP1;ratioP1;P1;durP2;ratioP2;P2;SDS_P1;SDS_P2;PMS_P1;PMS_P2;Temp;Humidity;BMP_temperature;BMP_pressure;BME280_temperature;BME280_humidity;BME280_pressure;Samples;Min_cycle;Max_cycle;Signal;HPM_P1;HPM_P2
2022/11/13 00:00:16;;;;;;;168.27;80.43;;;;;;;11.89;68.43;102687.44;4938701;28;119656;-71
2022/11/13 00:03:00;;;;;;;175.70;86.67;;;;;;;11.82;68.12;102692.22;4946807;28;121162;-72
2022/11/13 00:05:45;;;;;;;158.63;84.60;;;;;;;11.73;68.08;102683.66;4948699;28;120087;-71
2022/11/13 00:08:30;;;;;;;151.10;78.63;;;;;;;11.65;68.44;102678.25;4939681;28;120296;-73
2022/11/13 00:11:17;;;;;;;130.98;71.65;;;;;;;11.60;68.16;102686.16;4942019;28;119475;-72
2022/11/13 00:14:02;;;;;;;125.50;69.82;;;;;;;11.55;68.26;102681.88;4945463;28;120319;-71
2022/11/13 00:16:47;;;;;;;114.30;69.90;;;;;;;11.51;68.54;102672.09;4936754;28;120568;-72
2022/11/13 00:19:31;;;;;;;113.37;65.90;;;;;;;11.48;68.34;102673.69;4942179;28;120044;-73
2022/11/13 00:22:16;;;;;;;110.75;68.18;;;;;;;11.40;68.33;102658.47;4932113;28;119658;-73
2022/11/13 00:25:00;;;;;;;116.30;72.47;;;;;;;11.39;68.26;102678.91;4934929;28;119485;-74
2022/11/13 00:27:44;;;;;;;100.47;64.03;;;;;;;11.32;68.25;102666.00;4940678;28;119755;-72
2022/11/13 00:30:29;;;;;;;101.63;63.40;;;;;;;11.31;67.82;102675.44;4941637;28;120188;-73
2022/11/13 00:33:13;;;;;;;101.32;64.97;;;;;;;11.28;68.23;102673.50;4935179;28;119704;-73
2022/11/13 00:36:06;;;;;;;94.28;61.08;;;;;;;11.26;67.87;102670.38;4931168;28;120694;-73
2022/11/13 00:38:51;;;;;;;100.68;64.10;;;;;;;11.23;68.42;102667.66;4943906;28;120431;-73
2022/11/13 00:41:36;;;;;;;94.78;61.67;;;;;;;11.22;68.32;102664.13;4945861;28;119719;-73
2022/11/13 00:44:20;;;;;;;86.15;57.97;;;;;;;11.23;68.21;102662.16;4940293;28;120129;-73
2022/11/13 00:47:05;;;;;;;83.25;57.25;;;;;;;11.19;67.52;102655.94;4945469;28;120050;-73
2022/11/13 00:49:49;;;;;;;73.13;54.78;;;;;;;11.16;67.98;102667.75;4944027;28;120113;-72
2022/11/13 00:52:33;;;;;;;73.50;54.03;;;;;;;11.14;67.87;102667.38;4946962;28;120284;-73
2022/11/13 00:55:17;;;;;;;79.53;55.95;;;;;;;11.13;68.37;102679.53;4940963;28;119862;-72
2022/11/13 00:58:03;;;;;;;55.80;45.20;;;;;;;11.10;67.88;102677.56;4931969;28;119490;-72
2022/11/13 01:00:48;;;;;;;71.57;51.20;;;;;;;11.05;67.33;102676.84;4943421;28;119741;-73
2022/11/13 01:03:33;;;;;;;84.80;58.05;;;;;;;10.99;67.79;102675.72;4943693;28;119861;-73
2022/11/13 01:06:24;;;;;;;72.82;52.17;;;;;;;10.97;67.97;102680.06;4944367;28;120256;-71
2022/11/13 01:09:08;;;;;;;69.93;52.13;;;;;;;10.95;68.07;102672.22;4938790;28;119985;-72
2022/11/13 01:11:57;;;;;;;72.47;52.55;;;;;;;10.95;68.01;102666.72;4924507;28;119874;-72
2022/11/13 01:14:42;;;;;;;75.50;54.72;;;;;;;10.96;68.49;102673.78;4945064;28;119492;-72
2022/11/13 01:17:27;;;;;;;71.88;54.45;;;;;;;10.94;68.19;102670.66;4943537;28;121818;-72
2022/11/13 01:20:12;;;;;;;72.60;53.50;;;;;;;10.91;68.13;102665.97;4930797;28;119732;-73
2022/11/13 01:22:56;;;;;;;71.70;53.35;;;;;;;10.90;68.21;102658.94;4931579;28;120047;-72
2022/11/13 01:25:41;;;;;;;68.40;51.53;;;;;;;10.87;68.31;102653.44;4943959;28;119638;-72
2022/11/13 01:28:30;;;;;;;68.95;52.00;;;;;;;10.85;68.37;102637.38;4936506;28;119458;-72
2022/11/13 01:31:20;;;;;;;57.47;46.42;;;;;;;10.88;67.89;102644.78;4940491;28;119883;-72
2022/11/13 01:34:05;;;;;;;58.13;46.33;;;;;;;10.86;68.11;102646.38;4945109;28;119886;-72
2022/11/13 01:36:53;;;;;;;73.47;57.95;;;;;;;10.87;67.93;102648.72;4922655;28;120061;-72
2022/11/13 01:39:37;;;;;;;84.88;66.63;;;;;;;10.85;68.03;102640.13;4940134;28;120468;-72
2022/11/13 01:42:22;;;;;;;61.33;49.88;;;;;;;10.90;68.58;102636.97;4946379;28;119902;-72
2022/11/13 01:45:43;;;;;;;56.10;45.25;;;;;;;10.85;68.21;102620.13;4943689;28;120052;-72
2022/11/13 01:48:44;;;;;;;52.67;43.22;;;;;;;10.91;67.88;102624.78;4931449;28;119697;-72
2022/11/13 01:51:35;;;;;;;46.28;34.22;;;;;;;10.91;68.52;102613.03;4941931;28;119233;-73
2022/11/13 01:54:23;;;;;;;55.85;45.35;;;;;;;10.91;68.40;102604.78;4937652;28;119988;-72
2022/11/13 01:57:08;;;;;;;67.03;53.38;;;;;;;10.94;68.21;102602.00;4931950;28;119611;-73
2022/11/13 01:59:58;;;;;;;73.93;57.28;;;;;;;10.98;69.06;102585.50;4944617;28;119486;-72
2022/11/13 02:02:42;;;;;;;81.60;61.10;;;;;;;11.04;69.50;102587.38;4934703;28;120247;-73
2022/11/13 02:05:26;;;;;;;75.13;57.20;;;;;;;11.16;69.50;102591.59;4943840;28;119886;-72
2022/11/13 02:08:14;;;;;;;83.07;60.95;;;;;;;11.24;69.74;102578.56;4948229;28;119514;-72
2022/11/13 02:10:59;;;;;;;86.95;61.83;;;;;;;11.33;70.22;102574.13;4945255;28;120043;-72
2022/11/13 02:13:43;;;;;;;83.82;59.67;;;;;;;11.42;70.05;102575.63;4945046;28;119522;-73
2022/11/13 02:16:31;;;;;;;78.27;56.47;;;;;;;11.50;69.61;102575.13;4945797;28;120542;-72
2022/11/13 02:19:47;;;;;;;69.78;48.17;;;;;;;11.56;69.36;102569.94;4948382;28;120041;-72
2022/11/13 02:22:43;;;;;;;76.70;56.45;;;;;;;11.56;69.52;102565.22;4944371;28;120305;-72
2022/11/13 02:25:30;;;;;;;80.70;59.17;;;;;;;11.60;69.38;102571.50;4944236;28;119951;-73
2022/11/13 02:28:15;;;;;;;81.47;57.28;;;;;;;11.65;69.84;102564.75;4932249;28;119325;-72
2022/11/13 02:31:11;;;;;;;77.03;57.10;;;;;;;11.71;69.25;102565.06;4943758;28;120004;-73
2022/11/13 02:33:55;;;;;;;85.75;59.92;;;;;;;11.75;69.85;102565.78;4950570;28;119661;-72
2022/11/13 02:36:40;;;;;;;80.50;59.77;;;;;;;11.81;69.78;102559.44;4943336;28;119861;-72
2022/11/13 02:39:24;;;;;;;84.32;60.47;;;;;;;11.86;69.87;102561.75;4941378;28;120585;-72
2022/11/13 02:42:08;;;;;;;78.97;57.65;;;;;;;11.92;69.61;102559.31;4947444;28;119304;-72
2022/11/13 02:44:53;;;;;;;79.03;57.67;;;;;;;11.96;69.48;102560.03;4944013;28;120502;-72
2022/11/13 02:47:37;;;;;;;79.33;56.70;;;;;;;12.02;69.46;102566.63;4946540;28;120544;-73
2022/11/13 02:50:25;;;;;;;74.17;53.73;;;;;;;12.06;68.83;102567.34;4945081;28;119883;-72
2022/11/13 02:53:09;;;;;;;75.23;54.90;;;;;;;12.11;68.58;102568.88;4942986;28;121229;-72
2022/11/13 02:55:54;;;;;;;75.47;54.60;;;;;;;12.12;68.46;102568.47;4944108;28;120186;-72
2022/11/13 02:58:38;;;;;;;75.57;54.90;;;;;;;12.13;68.83;102561.78;4948419;28;119660;-72
2022/11/13 03:01:22;;;;;;;80.90;57.75;;;;;;;12.14;68.75;102555.06;4944616;28;120099;-72
2022/11/13 03:04:07;;;;;;;73.85;55.00;;;;;;;12.16;69.20;102562.91;4941012;28;120044;-72
2022/11/13 03:06:51;;;;;;;74.30;54.65;;;;;;;12.15;68.97;102551.13;4945475;28;120050;-72
2022/11/13 03:09:35;;;;;;;76.05;55.85;;;;;;;12.16;69.14;102546.41;4941439;28;119595;-73
2022/11/13 03:12:20;;;;;;;79.13;56.10;;;;;;;12.17;68.94;102550.72;4944129;28;120447;-73
2022/11/13 03:15:06;;;;;;;71.72;53.92;;;;;;;12.15;68.82;102542.09;4937302;28;119703;-73
2022/11/13 03:17:50;;;;;;;75.93;56.10;;;;;;;12.15;68.97;102536.59;4942811;28;119750;-73
2022/11/13 03:20:36;;;;;;;69.80;52.83;;;;;;;12.15;68.67;102534.63;4951983;28;119434;-72
2022/11/13 03:23:20;;;;;;;68.07;52.03;;;;;;;12.14;68.77;102529.53;4944211;28;120293;-72
2022/11/13 03:26:10;;;;;;;66.13;50.67;;;;;;;12.18;68.68;102535.75;4943323;28;120252;-71
2022/11/13 03:28:54;;;;;;;69.43;51.42;;;;;;;12.18;68.47;102522.78;4949671;28;120143;-72
2022/11/13 03:31:39;;;;;;;66.07;49.90;;;;;;;12.20;68.29;102509.38;4941564;28;120546;-72
2022/11/13 03:34:24;;;;;;;64.70;48.13;;;;;;;12.19;68.07;102518.06;4946200;28;119852;-72
2022/11/13 03:37:09;;;;;;;64.80;48.80;;;;;;;12.20;68.22;102520.38;4942658;28;120168;-73
2022/11/13 03:39:53;;;;;;;65.53;49.03;;;;;;;12.21;68.52;102529.41;4944602;28;120121;-73
2022/11/13 03:42:37;;;;;;;64.88;48.95;;;;;;;12.21;68.72;102526.66;4942661;28;119516;-72
2022/11/13 03:45:21;;;;;;;58.22;45.85;;;;;;;12.23;67.60;102530.56;4948048;28;119617;-72
2022/11/13 03:48:06;;;;;;;61.07;45.97;;;;;;;12.22;67.69;102534.50;4945922;28;119929;-72
2022/11/13 03:50:53;;;;;;;59.45;46.38;;;;;;;12.21;67.89;102532.16;4937230;28;119803;-72
2022/11/13 03:53:41;;;;;;;60.60;46.70;;;;;;;12.20;67.78;102534.16;4943250;28;120451;-73
2022/11/13 03:56:25;;;;;;;61.03;46.73;;;;;;;12.18;68.14;102530.25;4943088;28;120138;-73
2022/11/13 03:59:09;;;;;;;58.45;45.72;;;;;;;12.22;68.01;102539.22;4936649;28;119422;-73
2022/11/13 04:01:53;;;;;;;57.63;44.07;;;;;;;12.21;67.97;102526.66;4944415;28;119451;-72
2022/11/13 04:04:38;;;;;;;58.83;45.25;;;;;;;12.22;67.90;102531.75;4944855;28;120254;-72
2022/11/13 04:07:22;;;;;;;55.33;44.08;;;;;;;12.21;67.81;102526.66;4945316;28;120191;-72
2022/11/13 04:10:07;;;;;;;55.00;44.70;;;;;;;12.21;67.82;102519.19;4940215;28;120292;-72
2022/11/13 04:12:51;;;;;;;57.33;44.72;;;;;;;12.20;67.39;102514.88;4937504;28;119907;-72
2022/11/13 04:15:35;;;;;;;54.83;43.40;;;;;;;12.18;67.52;102502.75;4934944;28;119912;-72
2022/11/13 04:18:20;;;;;;;53.30;42.10;;;;;;;12.16;67.35;102505.13;4943521;28;120049;-72
2022/11/13 04:21:04;;;;;;;54.50;42.30;;;;;;;12.13;66.95;102498.50;4946949;28;120157;-72
2022/11/13 04:23:49;;;;;;;55.27;43.43;;;;;;;12.08;67.03;102504.47;4939569;28;120620;-72
2022/11/13 04:26:33;;;;;;;58.40;46.03;;;;;;;12.05;67.35;102502.53;4939509;28;119835;-72
2022/11/13 04:29:20;;;;;;;55.63;43.85;;;;;;;11.98;67.59;102486.16;4943392;28;119699;-72
2022/11/13 04:32:05;;;;;;;55.85;44.22;;;;;;;11.96;67.64;102483.03;4920022;28;119890;-72
2022/11/13 04:34:49;;;;;;;56.25;43.83;;;;;;;11.96;67.71;102491.28;4941060;28;119999;-73
2022/11/13 04:37:34;;;;;;;54.30;44.10;;;;;;;11.95;67.76;102486.97;4945441;28;120240;-72
2022/11/13 04:40:18;;;;;;;59.10;44.70;;;;;;;11.94;67.77;102488.97;4943664;28;119897;-73
2022/11/13 04:43:02;;;;;;;50.72;41.72;;;;;;;11.94;67.47;102485.44;4943105;28;119941;-72
2022/11/13 04:45:47;;;;;;;52.83;42.30;;;;;;;11.91;67.25;102486.25;4935840;28;120067;-72
2022/11/13 04:48:32;;;;;;;50.17;40.72;;;;;;;11.88;66.98;102485.13;4945244;28;120037;-72
2022/11/13 04:51:35;;;;;;;58.80;43.97;;;;;;;11.87;67.51;102482.78;4935226;28;120165;-73
2022/11/13 04:54:19;;;;;;;56.33;44.45;;;;;;;11.84;67.69;102486.38;4943007;28;119864;-73
2022/11/13 04:57:04;;;;;;;58.30;45.08;;;;;;;11.84;67.46;102480.88;4953155;28;119904;-72
2022/11/13 04:59:48;;;;;;;57.30;45.23;;;;;;;11.85;67.93;102485.19;4932146;28;120755;-72
2022/11/13 05:02:33;;;;;;;56.17;43.92;;;;;;;11.84;68.18;102487.16;4944923;28;119701;-72
2022/11/13 05:05:17;;;;;;;53.70;41.90;;;;;;;11.87;67.43;102486.31;4943866;28;119835;-72
2022/11/13 05:08:02;;;;;;;57.53;44.00;;;;;;;11.86;67.69;102490.25;4941776;28;120393;-73
2022/11/13 05:10:46;;;;;;;51.90;42.67;;;;;;;11.85;67.74;102485.19;4941418;28;119860;-72
2022/11/13 05:13:32;;;;;;;52.50;41.35;;;;;;;11.86;67.43;102495.75;4938442;28;119463;-72
2022/11/13 05:16:17;;;;;;;48.27;39.77;;;;;;;11.85;67.12;102498.94;4939040;28;119307;-72
2022/11/13 05:19:05;;;;;;;52.70;41.20;;;;;;;11.85;67.10;102498.94;4941814;28;119422;-73
2022/11/13 05:21:50;;;;;;;49.40;40.57;;;;;;;11.83;67.23;102484.78;4920067;28;121022;-73
2022/11/13 05:24:34;;;;;;;47.83;39.60;;;;;;;11.81;67.13;102498.19;4956098;28;119927;-73
2022/11/13 05:27:18;;;;;;;52.55;41.25;;;;;;;11.78;67.14;102488.78;4942094;28;119944;-73
2022/11/13 05:30:03;;;;;;;49.33;41.10;;;;;;;11.73;66.72;102482.97;4940924;28;119979;-72
2022/11/13 05:32:48;;;;;;;55.80;43.73;;;;;;;11.72;66.77;102484.16;4942621;28;120022;-71
2022/11/13 05:35:33;;;;;;;54.67;43.50;;;;;;;11.67;67.32;102474.41;4943140;28;120361;-72
2022/11/13 05:38:19;;;;;;;54.45;42.85;;;;;;;11.61;67.01;102465.84;4916858;28;120081;-71
2022/11/13 05:41:04;;;;;;;50.03;39.75;;;;;;;11.55;66.33;102481.22;4941599;28;119341;-72
2022/11/13 05:44:07;;;;;;;51.28;41.92;;;;;;;11.48;66.66;102473.09;4940722;28;119899;-72
2022/11/13 05:46:51;;;;;;;55.15;43.20;;;;;;;11.43;66.95;102475.50;4944358;28;119873;-72
2022/11/13 05:49:35;;;;;;;55.72;44.25;;;;;;;11.41;67.20;102486.91;4942724;28;119323;-72
2022/11/13 05:52:19;;;;;;;57.40;44.83;;;;;;;11.36;67.33;102487.38;4940237;28;119378;-71
2022/11/13 05:55:07;;;;;;;52.40;40.90;;;;;;;11.32;67.40;102481.13;4940092;28;120252;-71
2022/11/13 05:57:51;;;;;;;52.55;41.90;;;;;;;11.28;66.78;102477.66;4939740;28;119940;-71
2022/11/13 06:00:35;;;;;;;51.53;41.63;;;;;;;11.22;66.73;102477.34;4939151;28;119919;-72
2022/11/13 06:03:20;;;;;;;48.20;40.50;;;;;;;11.17;66.25;102485.25;4942497;28;120458;-71
2022/11/13 06:06:09;;;;;;;54.40;42.15;;;;;;;11.13;66.63;102487.28;4939885;28;119872;-71
2022/11/13 06:08:55;;;;;;;53.23;42.87;;;;;;;11.09;67.71;102487.28;4939340;28;119876;-71
2022/11/13 06:11:40;;;;;;;46.97;37.67;;;;;;;11.03;66.72;102477.94;4943773;28;119791;-71
2022/11/13 06:14:24;;;;;;;48.67;39.13;;;;;;;10.95;66.23;102482.75;4941875;28;120051;-75
2022/11/13 06:17:09;;;;;;;50.80;40.80;;;;;;;10.90;66.39;102488.69;4942896;28;119359;-71
2022/11/13 06:19:53;;;;;;;53.47;41.95;;;;;;;10.88;67.05;102482.81;4948333;28;119755;-72
2022/11/13 06:22:37;;;;;;;51.37;40.53;;;;;;;10.83;66.80;102479.72;4942307;28;119342;-72
2022/11/13 06:25:22;;;;;;;53.72;42.80;;;;;;;10.78;66.71;102472.72;4943542;28;119949;-72
2022/11/13 06:28:06;;;;;;;51.85;42.20;;;;;;;10.81;67.55;102477.41;4940880;28;120771;-73
2022/11/13 06:30:51;;;;;;;51.97;41.97;;;;;;;10.77;67.46;102466.47;4940842;28;119874;-73
2022/11/13 06:33:36;;;;;;;49.03;39.80;;;;;;;10.77;66.94;102471.94;4944261;28;120297;-72
2022/11/13 06:36:24;;;;;;;52.13;41.20;;;;;;;10.76;67.02;102469.63;4943997;28;119396;-72
2022/11/13 06:39:09;;;;;;;49.90;39.72;;;;;;;10.74;66.76;102469.25;4942013;28;119702;-72
2022/11/13 06:41:53;;;;;;;45.05;37.72;;;;;;;10.72;66.91;102471.63;4940590;28;119900;-72
2022/11/13 06:44:37;;;;;;;43.87;36.93;;;;;;;10.68;66.23;102474.41;4943096;28;119797;-72
2022/11/13 06:47:22;;;;;;;48.90;39.75;;;;;;;10.65;66.50;102480.72;4934252;28;119875;-72
2022/11/13 06:50:06;;;;;;;51.78;40.55;;;;;;;10.60;66.68;102480.34;4935881;28;120017;-73
2022/11/13 06:53:09;;;;;;;47.60;38.45;;;;;;;10.57;66.37;102478.44;4944984;28;119625;-72
2022/11/13 06:55:55;;;;;;;48.10;40.43;;;;;;;10.52;66.84;102484.34;4944454;28;120756;-72
2022/11/13 06:58:40;;;;;;;50.33;39.85;;;;;;;10.49;66.26;102480.47;4944465;28;119841;-72
2022/11/13 07:01:25;;;;;;;45.97;37.10;;;;;;;10.47;66.45;102485.59;4951473;28;120373;-72
2022/11/13 07:04:12;;;;;;;47.17;36.25;;;;;;;10.43;66.08;102482.09;4944730;28;119606;-72
2022/11/13 07:06:56;;;;;;;46.88;36.50;;;;;;;10.37;66.17;102483.69;4942619;28;120360;-72
2022/11/13 07:09:40;;;;;;;47.80;38.43;;;;;;;10.35;67.30;102486.06;4934337;28;120056;-72
2022/11/13 07:12:26;;;;;;;46.25;37.47;;;;;;;10.37;67.13;102494.66;4944100;28;120252;-71
2022/11/13 07:15:11;;;;;;;48.20;37.58;;;;;;;10.37;67.77;102489.19;4945737;28;119712;-72
2022/11/13 07:17:58;;;;;;;43.63;34.45;;;;;;;10.40;66.66;102500.13;4939174;28;119411;-72
2022/11/13 07:20:43;;;;;;;42.80;35.60;;;;;;;10.41;66.37;102492.69;4950422;28;119377;-72
2022/11/13 07:23:28;;;;;;;48.10;38.67;;;;;;;10.40;67.04;102494.63;4943003;28;119451;-73
2022/11/13 07:26:12;;;;;;;46.28;38.38;;;;;;;10.41;66.71;102500.94;4947922;28;119321;-72
2022/11/13 07:28:56;;;;;;;42.53;35.10;;;;;;;10.39;66.54;102498.56;4945083;28;119465;-71
2022/11/13 07:31:41;;;;;;;44.03;35.35;;;;;;;10.42;66.10;102497.78;4946036;28;119979;-72
2022/11/13 07:34:25;;;;;;;46.25;38.22;;;;;;;10.40;66.52;102497.38;4933136;28;120006;-72
2022/11/13 07:37:09;;;;;;;47.83;39.30;;;;;;;10.44;67.76;102492.66;4944500;28;119493;-72
2022/11/13 07:39:53;;;;;;;45.27;37.23;;;;;;;10.49;67.33;102496.16;4944075;28;119843;-72
2022/11/13 07:42:38;;;;;;;49.03;38.75;;;;;;;10.51;67.43;102491.03;4940318;28;119141;-72
2022/11/13 07:45:46;;;;;;;52.85;41.97;;;;;;;10.58;68.12;102477.25;4915966;28;120699;-72
2022/11/13 07:48:30;;;;;;;56.43;43.20;;;;;;;10.66;68.39;102481.50;4938788;28;120011;-72
2022/11/13 07:51:14;;;;;;;55.40;43.08;;;;;;;10.74;68.04;102483.75;4946113;28;120455;-73
2022/11/13 07:53:59;;;;;;;55.90;43.22;;;;;;;10.84;68.12;102479.31;4938656;28;120150;-73
2022/11/13 07:56:43;;;;;;;71.50;52.03;;;;;;;10.91;68.68;102475.75;4940548;28;119389;-73
2022/11/13 07:59:28;;;;;;;54.78;40.45;;;;;;;10.97;67.73;102485.09;4937980;28;122670;-73
2022/11/13 08:02:14;;;;;;;51.13;39.50;;;;;;;11.04;66.92;102495.97;4936533;28;119869;-72
2022/11/13 08:04:59;;;;;;;49.80;39.30;;;;;;;11.08;67.16;102500.25;4936805;28;120980;-72
2022/11/13 08:07:47;;;;;;;66.25;49.17;;;;;;;11.15;67.39;102490.38;4935951;28;120112;-73
2022/11/13 08:10:32;;;;;;;65.17;48.43;;;;;;;11.23;67.12;102497.34;4936628;28;119686;-72
2022/11/13 08:13:16;;;;;;;62.63;47.27;;;;;;;11.26;67.69;102480.03;4941156;28;120427;-72
2022/11/13 08:16:01;;;;;;;58.40;44.80;;;;;;;11.39;68.27;102494.81;4939285;28;119825;-73
2022/11/13 08:18:45;;;;;;;57.58;43.70;;;;;;;11.42;67.99;102482.19;4939725;28;119795;-73
2022/11/13 08:21:30;;;;;;;56.40;42.65;;;;;;;11.60;68.14;102493.75;4937096;28;119885;-73
2022/11/13 08:24:14;;;;;;;56.72;42.28;;;;;;;11.71;68.09;102493.59;4936855;28;119646;-73
2022/11/13 08:26:58;;;;;;;55.22;42.05;;;;;;;11.80;68.17;102499.38;4934258;28;119808;-73
2022/11/13 08:29:42;;;;;;;52.85;41.40;;;;;;;11.90;68.14;102487.47;4938158;28;121324;-72
2022/11/13 08:32:27;;;;;;;55.72;42.25;;;;;;;12.04;68.04;102478.19;4939710;28;120133;-71
2022/11/13 08:35:11;;;;;;;60.97;44.93;;;;;;;12.18;68.79;102481.50;4941785;28;118806;-72
2022/11/13 08:38:02;;;;;;;61.93;44.20;;;;;;;12.35;69.21;102487.94;4944584;28;120065;-73
2022/11/13 08:40:47;;;;;;;58.63;44.30;;;;;;;12.53;69.74;102493.13;4942723;28;119478;-73
2022/11/13 08:43:32;;;;;;;57.38;41.85;;;;;;;12.69;68.88;102484.97;4938058;28;121043;-74
2022/11/13 08:46:19;;;;;;;55.07;40.87;;;;;;;12.88;69.10;102489.72;4953348;28;119446;-71
2022/11/13 08:49:04;;;;;;;50.28;38.50;;;;;;;13.05;67.88;102484.31;4940041;28;119947;-71
2022/11/13 08:51:48;;;;;;;57.78;42.22;;;;;;;13.25;68.99;102498.09;4941565;28;120531;-72
2022/11/13 08:54:33;;;;;;;52.75;39.65;;;;;;;13.42;69.10;102485.94;4939609;28;120036;-72
2022/11/13 08:57:17;;;;;;;48.23;37.30;;;;;;;13.61;68.60;102487.09;4939520;28;120456;-72
2022/11/13 09:00:04;;;;;;;49.47;36.60;;;;;;;13.78;67.88;102491.47;4940076;28;120027;-73
2022/11/13 09:02:56;;;;;;;48.53;35.38;;;;;;;13.93;67.65;102481.63;4944801;28;120319;-73
2022/11/13 09:05:41;;;;;;;47.72;34.97;;;;;;;14.09;67.56;102489.16;4939097;28;119549;-74
2022/11/13 09:08:25;;;;;;;44.83;34.67;;;;;;;14.22;67.08;102486.50;4943118;28;120029;-74
2022/11/13 09:11:12;;;;;;;45.60;34.40;;;;;;;14.31;67.16;102484.66;4939189;28;119644;-73
2022/11/13 09:13:57;;;;;;;45.47;33.03;;;;;;;14.45;66.90;102482.78;4934271;28;120266;-73
2022/11/13 09:16:41;;;;;;;42.85;31.63;;;;;;;14.54;66.31;102489.25;4925818;28;119665;-71
2022/11/13 09:19:26;;;;;;;41.97;31.10;;;;;;;14.60;66.08;102487.50;4941722;28;119780;-73
2022/11/13 09:22:10;;;;;;;35.92;28.90;;;;;;;14.71;65.65;102490.00;4939576;28;120510;-74
2022/11/13 09:24:54;;;;;;;37.08;29.55;;;;;;;14.76;64.83;102488.69;4941808;28;120112;-74
2022/11/13 09:27:39;;;;;;;39.80;29.80;;;;;;;14.81;65.13;102485.38;4943236;28;120336;-74
2022/11/13 09:30:24;;;;;;;40.97;30.13;;;;;;;14.89;65.18;102478.44;4940021;28;120385;-73
2022/11/13 09:33:09;;;;;;;36.58;28.80;;;;;;;14.95;64.76;102476.72;4937043;28;119523;-73
2022/11/13 09:35:54;;;;;;;35.30;28.27;;;;;;;14.99;64.67;102478.16;4937372;28;120448;-74
2022/11/13 09:38:38;;;;;;;36.50;28.33;;;;;;;15.01;64.46;102475.75;4939232;28;119644;-74
2022/11/13 09:41:27;;;;;;;38.67;29.23;;;;;;;15.04;64.47;102485.13;4939727;28;119725;-73
2022/11/13 09:44:33;;;;;;;38.10;29.50;;;;;;;15.05;64.76;102472.88;4939037;28;120497;-74
2022/11/13 09:47:38;;;;;;;37.25;28.90;;;;;;;15.11;64.63;102484.94;4939458;28;120335;-72
2022/11/13 09:50:26;;;;;;;36.53;29.73;;;;;;;15.12;64.48;102485.69;4938686;28;120435;-73
2022/11/13 09:53:13;;;;;;;36.45;28.40;;;;;;;15.09;63.74;102479.06;4943503;28;119944;-71
2022/11/13 09:56:14;;;;;;;38.27;29.63;;;;;;;15.11;64.59;102482.16;4939789;28;119934;-72
2022/11/13 09:59:22;;;;;;;40.47;32.17;;;;;;;15.13;64.30;102476.97;4938244;28;120414;-71
2022/11/13 10:02:06;;;;;;;36.17;29.00;;;;;;;15.21;64.68;102481.09;4938782;28;119975;-74
2022/11/13 10:05:02;;;;;;;35.90;27.92;;;;;;;15.29;64.83;102474.13;4940261;28;119433;-73
2022/11/13 10:07:56;;;;;;;35.30;27.73;;;;;;;15.34;64.13;102473.59;4953106;28;119700;-73
2022/11/13 10:11:15;;;;;;;33.38;25.70;;;;;;;15.39;63.03;102468.75;4940574;28;120195;-74
2022/11/13 10:14:31;;;;;;;31.70;25.88;;;;;;;15.42;63.70;102465.88;4859373;28;120505;-73
2022/11/13 10:17:32;;;;;;;33.22;25.98;;;;;;;15.45;63.30;102458.69;4859179;28;120840;-73
2022/11/13 10:20:30;;;;;;;36.83;26.33;;;;;;;15.50;63.50;102452.59;4864432;28;119467;-73
2022/11/13 10:23:23;;;;;;;34.25;25.92;;;;;;;15.54;63.75;102461.56;4860867;28;120343;-73
2022/11/13 10:26:19;;;;;;;31.40;24.37;;;;;;;15.55;62.48;102452.03;4859592;28;120696;-74
2022/11/13 10:29:15;;;;;;;31.70;24.58;;;;;;;15.55;63.11;102452.81;4864168;28;119759;-74
2022/11/13 10:32:21;;;;;;;33.60;24.52;;;;;;;15.52;62.20;102441.88;4864225;28;120295;-73
2022/11/13 10:35:06;;;;;;;32.37;23.47;;;;;;;15.47;62.08;102442.44;4848803;28;120690;-73
2022/11/13 10:38:03;;;;;;;31.02;24.17;;;;;;;15.41;62.51;102436.69;4862400;28;120476;-74
2022/11/13 10:41:17;;;;;;;30.85;24.55;;;;;;;15.41;63.04;102438.66;4829592;28;120482;-72
2022/11/13 10:44:16;;;;;;;32.27;25.27;;;;;;;15.40;63.14;102426.84;4871206;28;121183;-74
2022/11/13 10:47:15;;;;;;;34.40;24.90;;;;;;;15.46;63.81;102432.59;4940238;28;120221;-74
2022/11/13 10:50:30;;;;;;;34.25;25.63;;;;;;;15.49;63.48;102435.22;4940880;28;120055;-73
2022/11/13 10:53:19;;;;;;;35.10;24.70;;;;;;;15.48;63.10;102427.38;4939878;28;120450;-73
2022/11/13 10:56:19;;;;;;;29.10;23.37;;;;;;;15.48;62.70;102432.91;4938475;28;119989;-74
2022/11/13 10:59:18;;;;;;;28.33;23.40;;;;;;;15.49;63.11;102423.41;4943977;28;120467;-74
2022/11/13 11:02:15;;;;;;;29.45;23.08;;;;;;;15.51;62.78;102424.50;4943466;28;120101;-74
2022/11/13 11:05:06;;;;;;;28.83;22.70;;;;;;;15.59;63.46;102425.06;4939677;28;120050;-72
2022/11/13 11:07:52;;;;;;;28.63;22.20;;;;;;;15.66;63.14;102416.56;4944063;28;119961;-74
2022/11/13 11:12:14;;;;;;;30.60;22.93;;;;;;;15.76;63.24;102409.13;4944460;28;119857;-73
2022/11/13 11:13:47;;;;;;;29.83;22.92;;;;;;;15.85;63.23;102407.25;4941789;28;120516;-73
2022/11/13 11:16:31;;;;;;;29.90;22.50;;;;;;;15.96;63.42;102404.13;4941187;28;120035;-74
2022/11/13 11:19:19;;;;;;;28.02;21.58;;;;;;;16.04;62.50;102394.34;4940539;28;119749;-74
2022/11/13 11:22:11;;;;;;;28.10;21.42;;;;;;;16.02;62.22;102398.78;4941193;28;121004;-73
2022/11/13 11:24:56;;;;;;;29.50;22.05;;;;;;;15.94;61.82;102396.28;4943562;28;119986;-74
2022/11/13 11:28:05;;;;;;;27.52;21.90;;;;;;;15.80;61.51;102391.19;4942560;28;119864;-74
2022/11/13 11:30:57;;;;;;;30.00;22.63;;;;;;;15.76;62.41;102390.53;4941989;28;120047;-74
2022/11/13 11:33:54;;;;;;;30.73;22.08;;;;;;;15.71;62.73;102387.56;4940418;28;120039;-73
2022/11/13 11:36:47;;;;;;;29.50;21.98;;;;;;;15.72;62.85;102384.34;4945503;28;120124;-74
2022/11/13 11:39:41;;;;;;;29.58;21.73;;;;;;;15.73;63.04;102385.91;4940250;28;120012;-73
2022/11/13 11:42:40;;;;;;;27.30;20.90;;;;;;;15.78;63.06;102382.56;4940259;28;120134;-74
2022/11/13 11:45:42;;;;;;;29.17;21.08;;;;;;;15.91;63.39;102386.09;4938326;28;121879;-72
2022/11/13 11:48:31;;;;;;;26.57;20.73;;;;;;;16.01;63.29;102389.72;4943089;28;120018;-72
2022/11/13 11:51:21;;;;;;;26.20;21.27;;;;;;;16.08;63.12;102380.38;4941839;28;120432;-72
2022/11/13 11:54:29;;;;;;;31.23;22.17;;;;;;;16.17;63.09;102380.50;4942626;28;119997;-72
2022/11/13 11:57:16;;;;;;;33.83;23.00;;;;;;;16.25;62.81;102373.47;4942688;28;120801;-73
2022/11/13 12:00:14;;;;;;;29.52;22.45;;;;;;;16.28;62.27;102383.66;4936570;28;122883;-73
2022/11/13 12:03:32;;;;;;;29.48;21.92;;;;;;;16.33;61.65;102380.34;4946071;28;120836;-74
2022/11/13 12:06:56;;;;;;;30.55;21.50;;;;;;;16.32;61.54;102373.22;4940487;28;119648;-74
2022/11/13 12:09:58;;;;;;;30.48;21.75;;;;;;;16.34;61.48;102372.78;4939501;28;120584;-74
2022/11/13 12:12:44;;;;;;;26.75;20.63;;;;;;;16.34;61.35;102372.78;4942660;28;119867;-74
2022/11/13 12:15:57;;;;;;;30.23;22.20;;;;;;;16.29;61.38;102368.59;4939889;28;120265;-73
2022/11/13 12:19:02;;;;;;;29.83;23.02;;;;;;;16.20;61.47;102368.53;4942513;28;120651;-74
2022/11/13 12:21:46;;;;;;;31.10;23.47;;;;;;;16.20;62.21;102374.06;4940536;28;120127;-74
2022/11/13 12:24:46;;;;;;;33.83;25.50;;;;;;;16.16;61.87;102374.19;4941764;28;120137;-73
2022/11/13 12:27:34;;;;;;;32.90;25.65;;;;;;;16.10;61.90;102370.44;4941891;28;119559;-73
2022/11/13 12:30:36;;;;;;;37.17;27.15;;;;;;;16.05;62.26;102367.44;4941996;28;120395;-73
2022/11/13 12:33:45;;;;;;;39.07;29.20;;;;;;;15.99;62.32;102364.47;4941682;28;120128;-72
2022/11/13 12:36:30;;;;;;;39.28;30.17;;;;;;;15.93;62.08;102367.06;4939103;28;120471;-73